sensor_id;sensor_type;location;lat;lon;timestamp;P1;durP1;ratioP1;P2;durP2;ratioP2
78224;SDS011;67498;53.650;10.090;2024-03-02T00:00:08;20.67;;;5.70;;
78224;SDS011;67498;53.650;10.090;2024-03-02T00:02:43;19.58;;;6.72;;
78224;SDS011;67498;53.650;10.090;2024-03-02T00:05:12;18.38;;;5.82;;
78224;SDS011;67498;53.650;10.090;2024-03-02T00:07:42;17.45;;;5.57;;
78224;SDS011;67498;53.650;10.090;2024-03-02T00:10:09;14.27;;;5.82;;
78224;SDS011;67498;53.650;10.090;2024-03-02T00:12:40;16.43;;;5.90;;
78224;SDS011;67498;53.650;10.090;2024-03-02T00:15:33;22.60;;;6.45;;
78224;SDS011;67498;53.650;10.090;2024-03-02T00:18:06;19.27;;;6.63;;
78224;SDS011;67498;53.650;10.090;2024-03-02T00:20:33;15.50;;;5.78;;
78224;SDS011;67498;53.650;10.090;2024-03-02T00:23:08;18.37;;;6.60;;
78224;SDS011;67498;53.650;10.090;2024-03-02T00:25:39;16.40;;;6.05;;
78224;SDS011;67498;53.650;10.090;2024-03-02T00:28:10;18.63;;;6.68;;
78224;SDS011;67498;53.650;10.090;2024-03-02T00:30:59;18.03;;;5.90;;
78224;SDS011;67498;53.650;10.090;2024-03-02T00:33:28;20.13;;;6.82;;
78224;SDS011;67498;53.650;10.090;2024-03-02T00:35:56;18.63;;;5.88;;
78224;SDS011;67498;53.650;10.090;2024-03-02T00:38:22;23.15;;;6.97;;
78224;SDS011;67498;53.650;10.090;2024-03-02T00:40:47;19.50;;;7.17;;
78224;SDS011;67498;53.650;10.090;2024-03-02T00:45:59;25.02;;;7.80;;
78224;SDS011;67498;53.650;10.090;2024-03-02T00:48:25;21.70;;;7.43;;
78224;SDS011;67498;53.650;10.090;2024-03-02T00:50:52;19.43;;;7.20;;
78224;SDS011;67498;53.650;10.090;2024-03-02T00:53:17;21.70;;;7.30;;
78224;SDS011;67498;53.650;10.090;2024-03-02T00:55:49;19.98;;;7.32;;
78224;SDS011;67498;53.650;10.090;2024-03-02T00:58:15;24.43;;;8.27;;
78224;SDS011;67498;53.650;10.090;2024-03-02T01:00:40;24.30;;;7.57;;
78224;SDS011;67498;53.650;10.090;2024-03-02T01:03:05;20.80;;;7.70;;
78224;SDS011;67498;53.650;10.090;2024-03-02T01:05:31;21.67;;;7.68;;
78224;SDS011;67498;53.650;10.090;2024-03-02T01:07:56;24.60;;;7.70;;
78224;SDS011;67498;53.650;10.090;2024-03-02T01:10:21;20.60;;;7.70;;
78224;SDS011;67498;53.650;10.090;2024-03-02T01:12:47;22.30;;;7.80;;
78224;SDS011;67498;53.650;10.090;2024-03-02T01:15:12;24.20;;;7.70;;
78224;SDS011;67498;53.650;10.090;2024-03-02T01:17:37;25.13;;;8.23;;
78224;SDS011;67498;53.650;10.090;2024-03-02T01:20:03;20.43;;;6.77;;
78224;SDS011;67498;53.650;10.090;2024-03-02T01:22:29;26.35;;;8.00;;
78224;SDS011;67498;53.650;10.090;2024-03-02T01:24:57;20.45;;;7.80;;
78224;SDS011;67498;53.650;10.090;2024-03-02T01:27:23;19.30;;;7.87;;
78224;SDS011;67498;53.650;10.090;2024-03-02T01:29:48;22.13;;;7.90;;
78224;SDS011;67498;53.650;10.090;2024-03-02T01:32:13;22.33;;;7.57;;
78224;SDS011;67498;53.650;10.090;2024-03-02T01:34:38;28.10;;;9.23;;
78224;SDS011;67498;53.650;10.090;2024-03-02T01:37:04;25.53;;;8.43;;
78224;SDS011;67498;53.650;10.090;2024-03-02T01:39:29;30.48;;;7.68;;
78224;SDS011;67498;53.650;10.090;2024-03-02T01:41:55;25.07;;;8.13;;
78224;SDS011;67498;53.650;10.090;2024-03-02T01:44:20;18.53;;;7.03;;
78224;SDS011;67498;53.650;10.090;2024-03-02T01:46:45;18.90;;;7.13;;
78224;SDS011;67498;53.650;10.090;2024-03-02T01:49:11;30.23;;;9.27;;
78224;SDS011;67498;53.650;10.090;2024-03-02T01:51:36;23.57;;;8.10;;
78224;SDS011;67498;53.650;10.090;2024-03-02T01:54:01;21.17;;;7.43;;
78224;SDS011;67498;53.650;10.090;2024-03-02T01:56:27;26.30;;;7.30;;
78224;SDS011;67498;53.650;10.090;2024-03-02T01:58:52;24.07;;;7.70;;
78224;SDS011;67498;53.650;10.090;2024-03-02T02:01:17;22.77;;;8.03;;
78224;SDS011;67498;53.650;10.090;2024-03-02T02:03:43;23.13;;;7.53;;
78224;SDS011;67498;53.650;10.090;2024-03-02T02:06:09;26.77;;;8.73;;
78224;SDS011;67498;53.650;10.090;2024-03-02T02:08:36;29.50;;;8.70;;
78224;SDS011;67498;53.650;10.090;2024-03-02T02:11:02;22.23;;;7.83;;
78224;SDS011;67498;53.650;10.090;2024-03-02T02:13:27;18.52;;;7.63;;
78224;SDS011;67498;53.650;10.090;2024-03-02T02:15:52;26.57;;;7.83;;
78224;SDS011;67498;53.650;10.090;2024-03-02T02:18:18;26.90;;;7.93;;
78224;SDS011;67498;53.650;10.090;2024-03-02T02:20:43;28.03;;;8.00;;
78224;SDS011;67498;53.650;10.090;2024-03-02T02:23:08;28.47;;;6.77;;
78224;SDS011;67498;53.650;10.090;2024-03-02T02:25:35;21.48;;;7.38;;
78224;SDS011;67498;53.650;10.090;2024-03-02T02:28:00;20.63;;;7.75;;
78224;SDS011;67498;53.650;10.090;2024-03-02T02:30:30;17.30;;;6.80;;
78224;SDS011;67498;53.650;10.090;2024-03-02T02:32:56;24.35;;;7.88;;
78224;SDS011;67498;53.650;10.090;2024-03-02T02:35:22;24.67;;;8.57;;
78224;SDS011;67498;53.650;10.090;2024-03-02T02:37:49;26.63;;;9.13;;
78224;SDS011;67498;53.650;10.090;2024-03-02T02:40:15;22.40;;;8.43;;
78224;SDS011;67498;53.650;10.090;2024-03-02T02:42:41;21.97;;;8.20;;
78224;SDS011;67498;53.650;10.090;2024-03-02T02:45:06;21.73;;;7.57;;
78224;SDS011;67498;53.650;10.090;2024-03-02T02:47:32;25.97;;;8.27;;
78224;SDS011;67498;53.650;10.090;2024-03-02T02:50:01;26.20;;;8.30;;
78224;SDS011;67498;53.650;10.090;2024-03-02T02:52:34;24.65;;;8.13;;
78224;SDS011;67498;53.650;10.090;2024-03-02T02:55:02;23.00;;;7.55;;
78224;SDS011;67498;53.650;10.090;2024-03-02T02:57:28;28.10;;;8.10;;
78224;SDS011;67498;53.650;10.090;2024-03-02T02:59:55;24.83;;;8.73;;
78224;SDS011;67498;53.650;10.090;2024-03-02T03:02:21;24.33;;;8.47;;
78224;SDS011;67498;53.650;10.090;2024-03-02T03:04:46;24.57;;;8.77;;
78224;SDS011;67498;53.650;10.090;2024-03-02T03:07:11;20.97;;;6.60;;
78224;SDS011;67498;53.650;10.090;2024-03-02T03:09:37;23.07;;;7.80;;
78224;SDS011;67498;53.650;10.090;2024-03-02T03:12:03;25.50;;;7.80;;
78224;SDS011;67498;53.650;10.090;2024-03-02T03:14:29;23.77;;;8.45;;
78224;SDS011;67498;53.650;10.090;2024-03-02T03:16:54;29.30;;;8.40;;
78224;SDS011;67498;53.650;10.090;2024-03-02T03:19:19;27.67;;;8.43;;
78224;SDS011;67498;53.650;10.090;2024-03-02T03:21:45;24.90;;;8.17;;
78224;SDS011;67498;53.650;10.090;2024-03-02T03:24:10;21.70;;;7.77;;
78224;SDS011;67498;53.650;10.090;2024-03-02T03:26:35;21.03;;;7.60;;
78224;SDS011;67498;53.650;10.090;2024-03-02T03:29:01;26.48;;;8.85;;
78224;SDS011;67498;53.650;10.090;2024-03-02T03:31:27;28.93;;;7.73;;
78224;SDS011;67498;53.650;10.090;2024-03-02T03:33:53;32.42;;;9.50;;
78224;SDS011;67498;53.650;10.090;2024-03-02T03:36:18;22.23;;;8.17;;
78224;SDS011;67498;53.650;10.090;2024-03-02T03:38:43;26.20;;;9.30;;
78224;SDS011;67498;53.650;10.090;2024-03-02T03:41:09;25.43;;;7.90;;
78224;SDS011;67498;53.650;10.090;2024-03-02T03:43:35;23.50;;;8.02;;
78224;SDS011;67498;53.650;10.090;2024-03-02T03:46:00;25.40;;;8.03;;
78224;SDS011;67498;53.650;10.090;2024-03-02T03:48:27;21.48;;;7.38;;
78224;SDS011;67498;53.650;10.090;2024-03-02T03:50:55;21.35;;;6.88;;
78224;SDS011;67498;53.650;10.090;2024-03-02T03:53:21;25.70;;;7.83;;
78224;SDS011;67498;53.650;10.090;2024-03-02T03:55:47;22.20;;;7.47;;
78224;SDS011;67498;53.650;10.090;2024-03-02T03:58:14;21.17;;;6.90;;
78224;SDS011;67498;53.650;10.090;2024-03-02T04:00:41;22.88;;;7.65;;
78224;SDS011;67498;53.650;10.090;2024-03-02T04:03:07;29.33;;;7.50;;
78224;SDS011;67498;53.650;10.090;2024-03-02T04:05:32;23.40;;;7.90;;
78224;SDS011;67498;53.650;10.090;2024-03-02T04:07:57;21.38;;;8.10;;
78224;SDS011;67498;53.650;10.090;2024-03-02T04:10:23;21.23;;;6.83;;
78224;SDS011;67498;53.650;10.090;2024-03-02T04:12:49;22.13;;;7.50;;
78224;SDS011;67498;53.650;10.090;2024-03-02T04:15:15;26.13;;;7.80;;
78224;SDS011;67498;53.650;10.090;2024-03-02T04:17:41;22.70;;;8.40;;
78224;SDS011;67498;53.650;10.090;2024-03-02T04:20:06;23.90;;;7.93;;
78224;SDS011;67498;53.650;10.090;2024-03-02T04:22:32;19.27;;;7.60;;
78224;SDS011;67498;53.650;10.090;2024-03-02T04:24:59;26.23;;;7.25;;
78224;SDS011;67498;53.650;10.090;2024-03-02T04:27:25;25.43;;;9.07;;
78224;SDS011;67498;53.650;10.090;2024-03-02T04:29:51;21.90;;;7.35;;
78224;SDS011;67498;53.650;10.090;2024-03-02T04:32:16;22.23;;;6.90;;
78224;SDS011;67498;53.650;10.090;2024-03-02T04:34:42;20.35;;;6.40;;
78224;SDS011;67498;53.650;10.090;2024-03-02T04:37:08;23.37;;;6.90;;
78224;SDS011;67498;53.650;10.090;2024-03-02T04:39:34;19.65;;;7.40;;
78224;SDS011;67498;53.650;10.090;2024-03-02T04:42:00;16.87;;;5.57;;
78224;SDS011;67498;53.650;10.090;2024-03-02T04:44:25;22.53;;;8.27;;
78224;SDS011;67498;53.650;10.090;2024-03-02T04:46:51;20.10;;;6.33;;
78224;SDS011;67498;53.650;10.090;2024-03-02T04:49:16;19.40;;;6.73;;
78224;SDS011;67498;53.650;10.090;2024-03-02T04:51:41;18.73;;;6.17;;
78224;SDS011;67498;53.650;10.090;2024-03-02T04:54:06;18.63;;;6.23;;
78224;SDS011;67498;53.650;10.090;2024-03-02T04:56:32;21.33;;;6.87;;
78224;SDS011;67498;53.650;10.090;2024-03-02T04:58:57;21.03;;;7.70;;
78224;SDS011;67498;53.650;10.090;2024-03-02T05:01:23;22.92;;;7.70;;
78224;SDS011;67498;53.650;10.090;2024-03-02T05:03:48;19.73;;;7.37;;
78224;SDS011;67498;53.650;10.090;2024-03-02T05:06:13;21.63;;;7.50;;
78224;SDS011;67498;53.650;10.090;2024-03-02T05:08:39;18.13;;;7.33;;
78224;SDS011;67498;53.650;10.090;2024-03-02T05:11:04;18.50;;;6.70;;
78224;SDS011;67498;53.650;10.090;2024-03-02T05:13:48;24.88;;;8.10;;
78224;SDS011;67498;53.650;10.090;2024-03-02T05:16:13;20.73;;;7.07;;
78224;SDS011;67498;53.650;10.090;2024-03-02T05:18:38;22.40;;;6.60;;
78224;SDS011;67498;53.650;10.090;2024-03-02T05:21:04;22.00;;;7.80;;
78224;SDS011;67498;53.650;10.090;2024-03-02T05:23:30;22.88;;;7.10;;
78224;SDS011;67498;53.650;10.090;2024-03-02T05:25:56;16.73;;;6.77;;
78224;SDS011;67498;53.650;10.090;2024-03-02T05:28:21;15.35;;;6.40;;
78224;SDS011;67498;53.650;10.090;2024-03-02T05:30:46;19.33;;;7.10;;
78224;SDS011;67498;53.650;10.090;2024-03-02T05:33:12;21.37;;;7.57;;
78224;SDS011;67498;53.650;10.090;2024-03-02T05:35:37;18.07;;;5.83;;
78224;SDS011;67498;53.650;10.090;2024-03-02T05:38:03;19.20;;;6.63;;
78224;SDS011;67498;53.650;10.090;2024-03-02T05:40:28;18.90;;;7.15;;
78224;SDS011;67498;53.650;10.090;2024-03-02T05:42:53;20.37;;;7.60;;
78224;SDS011;67498;53.650;10.090;2024-03-02T05:45:18;27.30;;;7.47;;
78224;SDS011;67498;53.650;10.090;2024-03-02T05:47:44;19.17;;;7.10;;
78224;SDS011;67498;53.650;10.090;2024-03-02T05:50:09;18.93;;;6.37;;
78224;SDS011;67498;53.650;10.090;2024-03-02T05:52:34;20.10;;;7.23;;
78224;SDS011;67498;53.650;10.090;2024-03-02T05:54:59;15.03;;;6.03;;
78224;SDS011;67498;53.650;10.090;2024-03-02T05:57:25;18.20;;;7.20;;
78224;SDS011;67498;53.650;10.090;2024-03-02T06:00:05;19.63;;;6.45;;
78224;SDS011;67498;53.650;10.090;2024-03-02T06:02:33;13.37;;;5.67;;
78224;SDS011;67498;53.650;10.090;2024-03-02T06:04:58;17.48;;;6.68;;
78224;SDS011;67498;53.650;10.090;2024-03-02T06:07:23;22.23;;;7.67;;
78224;SDS011;67498;53.650;10.090;2024-03-02T06:09:49;20.73;;;6.57;;
78224;SDS011;67498;53.650;10.090;2024-03-02T06:12:16;18.60;;;6.95;;
78224;SDS011;67498;53.650;10.090;2024-03-02T06:14:42;19.77;;;6.73;;
78224;SDS011;67498;53.650;10.090;2024-03-02T06:17:08;23.35;;;7.20;;
78224;SDS011;67498;53.650;10.090;2024-03-02T06:19:33;17.67;;;6.30;;
78224;SDS011;67498;53.650;10.090;2024-03-02T06:21:58;22.53;;;7.43;;
78224;SDS011;67498;53.650;10.090;2024-03-02T06:24:24;17.87;;;6.13;;
78224;SDS011;67498;53.650;10.090;2024-03-02T06:26:51;19.60;;;6.20;;
78224;SDS011;67498;53.650;10.090;2024-03-02T06:29:17;20.08;;;7.68;;
78224;SDS011;67498;53.650;10.090;2024-03-02T06:31:42;26.40;;;8.27;;
78224;SDS011;67498;53.650;10.090;2024-03-02T06:34:07;21.17;;;6.80;;
78224;SDS011;67498;53.650;10.090;2024-03-02T06:36:33;18.05;;;6.63;;
78224;SDS011;67498;53.650;10.090;2024-03-02T06:38:59;23.33;;;7.00;;
78224;SDS011;67498;53.650;10.090;2024-03-02T06:41:24;15.87;;;5.50;;
78224;SDS011;67498;53.650;10.090;2024-03-02T06:43:49;19.07;;;6.93;;
78224;SDS011;67498;53.650;10.090;2024-03-02T06:46:15;20.20;;;7.37;;
78224;SDS011;67498;53.650;10.090;2024-03-02T06:48:40;19.80;;;7.77;;
78224;SDS011;67498;53.650;10.090;2024-03-02T06:51:05;18.63;;;7.30;;
78224;SDS011;67498;53.650;10.090;2024-03-02T06:53:30;21.05;;;6.68;;
78224;SDS011;67498;53.650;10.090;2024-03-02T06:55:58;19.77;;;7.30;;
78224;SDS011;67498;53.650;10.090;2024-03-02T06:58:23;17.30;;;6.17;;
78224;SDS011;67498;53.650;10.090;2024-03-02T07:00:49;18.30;;;5.77;;
78224;SDS011;67498;53.650;10.090;2024-03-02T07:03:14;23.10;;;6.73;;
78224;SDS011;67498;53.650;10.090;2024-03-02T07:05:39;21.47;;;7.43;;
78224;SDS011;67498;53.650;10.090;2024-03-02T07:08:05;18.70;;;6.77;;
78224;SDS011;67498;53.650;10.090;2024-03-02T07:10:31;20.73;;;6.88;;
78224;SDS011;67498;53.650;10.090;2024-03-02T07:12:56;19.37;;;7.30;;
78224;SDS011;67498;53.650;10.090;2024-03-02T07:15:21;19.57;;;6.97;;
78224;SDS011;67498;53.650;10.090;2024-03-02T07:17:52;18.05;;;6.32;;
78224;SDS011;67498;53.650;10.090;2024-03-02T07:20:18;23.43;;;7.20;;
78224;SDS011;67498;53.650;10.090;2024-03-02T07:22:43;20.37;;;7.70;;
78224;SDS011;67498;53.650;10.090;2024-03-02T07:25:08;17.90;;;6.40;;
78224;SDS011;67498;53.650;10.090;2024-03-02T07:27:33;16.43;;;5.57;;
78224;SDS011;67498;53.650;10.090;2024-03-02T07:30:00;15.35;;;5.80;;
78224;SDS011;67498;53.650;10.090;2024-03-02T07:32:28;17.38;;;6.70;;
78224;SDS011;67498;53.650;10.090;2024-03-02T07:34:54;18.60;;;6.53;;
78224;SDS011;67498;53.650;10.090;2024-03-02T07:37:20;17.07;;;6.03;;
78224;SDS011;67498;53.650;10.090;2024-03-02T07:39:46;16.90;;;6.32;;
78224;SDS011;67498;53.650;10.090;2024-03-02T07:42:11;16.50;;;6.33;;
78224;SDS011;67498;53.650;10.090;2024-03-02T07:44:37;23.27;;;6.17;;
78224;SDS011;67498;53.650;10.090;2024-03-02T07:47:02;18.58;;;6.63;;
78224;SDS011;67498;53.650;10.090;2024-03-02T07:49:28;20.13;;;6.67;;
78224;SDS011;67498;53.650;10.090;2024-03-02T07:51:53;23.77;;;7.37;;
78224;SDS011;67498;53.650;10.090;2024-03-02T07:54:18;17.43;;;6.77;;
78224;SDS011;67498;53.650;10.090;2024-03-02T07:56:44;20.43;;;6.63;;
78224;SDS011;67498;53.650;10.090;2024-03-02T07:59:10;18.42;;;6.60;;
78224;SDS011;67498;53.650;10.090;2024-03-02T08:01:35;20.97;;;7.07;;
78224;SDS011;67498;53.650;10.090;2024-03-02T08:04:01;20.42;;;7.03;;
78224;SDS011;67498;53.650;10.090;2024-03-02T08:06:29;17.23;;;6.13;;
78224;SDS011;67498;53.650;10.090;2024-03-02T08:08:54;17.73;;;6.82;;
78224;SDS011;67498;53.650;10.090;2024-03-02T08:11:21;18.45;;;6.82;;
78224;SDS011;67498;53.650;10.090;2024-03-02T08:13:46;20.03;;;7.10;;
78224;SDS011;67498;53.650;10.090;2024-03-02T08:16:12;19.05;;;6.88;;
78224;SDS011;67498;53.650;10.090;2024-03-02T08:18:38;17.10;;;5.97;;
78224;SDS011;67498;53.650;10.090;2024-03-02T08:21:04;17.47;;;5.83;;
78224;SDS011;67498;53.650;10.090;2024-03-02T08:23:29;21.42;;;7.25;;
78224;SDS011;67498;53.650;10.090;2024-03-02T08:25:55;17.93;;;6.27;;
78224;SDS011;67498;53.650;10.090;2024-03-02T08:28:20;16.60;;;6.17;;
78224;SDS011;67498;53.650;10.090;2024-03-02T08:30:46;18.43;;;7.13;;
78224;SDS011;67498;53.650;10.090;2024-03-02T08:33:11;19.87;;;7.00;;
78224;SDS011;67498;53.650;10.090;2024-03-02T08:35:36;13.37;;;5.10;;
78224;SDS011;67498;53.650;10.090;2024-03-02T08:38:02;20.53;;;6.17;;
78224;SDS011;67498;53.650;10.090;2024-03-02T08:40:28;20.67;;;6.90;;
78224;SDS011;67498;53.650;10.090;2024-03-02T08:42:54;17.57;;;6.10;;
78224;SDS011;67498;53.650;10.090;2024-03-02T08:45:19;16.90;;;5.97;;
78224;SDS011;67498;53.650;10.090;2024-03-02T08:47:45;14.90;;;5.55;;
78224;SDS011;67498;53.650;10.090;2024-03-02T08:50:11;15.97;;;5.67;;
78224;SDS011;67498;53.650;10.090;2024-03-02T08:52:36;13.40;;;4.72;;
78224;SDS011;67498;53.650;10.090;2024-03-02T08:55:01;16.77;;;6.13;;
78224;SDS011;67498;53.650;10.090;2024-03-02T08:57:27;18.07;;;6.00;;
78224;SDS011;67498;53.650;10.090;2024-03-02T08:59:52;18.43;;;6.60;;
78224;SDS011;67498;53.650;10.090;2024-03-02T09:02:17;14.63;;;5.53;;
78224;SDS011;67498;53.650;10.090;2024-03-02T09:04:43;19.67;;;5.87;;
78224;SDS011;67498;53.650;10.090;2024-03-02T09:07:08;15.77;;;5.57;;
78224;SDS011;67498;53.650;10.090;2024-03-02T09:09:33;14.37;;;5.87;;
78224;SDS011;67498;53.650;10.090;2024-03-02T09:11:59;12.20;;;4.87;;
78224;SDS011;67498;53.650;10.090;2024-03-02T09:14:24;20.00;;;6.37;;
78224;SDS011;67498;53.650;10.090;2024-03-02T09:16:49;16.00;;;5.80;;
78224;SDS011;67498;53.650;10.090;2024-03-02T09:19:15;13.97;;;4.90;;
78224;SDS011;67498;53.650;10.090;2024-03-02T09:21:41;16.27;;;6.10;;
78224;SDS011;67498;53.650;10.090;2024-03-02T09:24:07;16.90;;;6.80;;
78224;SDS011;67498;53.650;10.090;2024-03-02T09:26:32;14.70;;;5.93;;
78224;SDS011;67498;53.650;10.090;2024-03-02T09:28:58;17.83;;;5.90;;
78224;SDS011;67498;53.650;10.090;2024-03-02T09:31:23;15.50;;;5.33;;
78224;SDS011;67498;53.650;10.090;2024-03-02T09:33:48;15.37;;;5.20;;
78224;SDS011;67498;53.650;10.090;2024-03-02T09:36:20;14.97;;;5.57;;
78224;SDS011;67498;53.650;10.090;2024-03-02T09:38:47;13.38;;;4.53;;
78224;SDS011;67498;53.650;10.090;2024-03-02T09:41:13;15.80;;;5.30;;
78224;SDS011;67498;53.650;10.090;2024-03-02T09:43:39;14.50;;;4.93;;
78224;SDS011;67498;53.650;10.090;2024-03-02T09:46:05;15.50;;;5.57;;
78224;SDS011;67498;53.650;10.090;2024-03-02T09:48:31;15.82;;;4.82;;
78224;SDS011;67498;53.650;10.090;2024-03-02T09:50:56;13.60;;;4.77;;
78224;SDS011;67498;53.650;10.090;2024-03-02T09:53:22;15.03;;;5.57;;
78224;SDS011;67498;53.650;10.090;2024-03-02T09:55:48;12.90;;;5.03;;
78224;SDS011;67498;53.650;10.090;2024-03-02T09:58:14;13.17;;;5.00;;
78224;SDS011;67498;53.650;10.090;2024-03-02T10:00:39;14.37;;;5.37;;
78224;SDS011;67498;53.650;10.090;2024-03-02T10:03:04;18.37;;;6.17;;
78224;SDS011;67498;53.650;10.090;2024-03-02T10:05:30;20.48;;;5.35;;
78224;SDS011;67498;53.650;10.090;2024-03-02T10:07:58;15.70;;;5.50;;
78224;SDS011;67498;53.650;10.090;2024-03-02T10:10:26;13.90;;;4.85;;
78224;SDS011;67498;53.650;10.090;2024-03-02T10:13:04;13.60;;;4.85;;
78224;SDS011;67498;53.650;10.090;2024-03-02T10:15:32;13.93;;;4.95;;
78224;SDS011;67498;53.650;10.090;2024-03-02T10:17:58;7.03;;;2.33;;
78224;SDS011;67498;53.650;10.090;2024-03-02T10:20:24;12.93;;;4.30;;
78224;SDS011;67498;53.650;10.090;2024-03-02T10:22:51;15.55;;;5.03;;
78224;SDS011;67498;53.650;10.090;2024-03-02T10:25:29;14.30;;;4.63;;
78224;SDS011;67498;53.650;10.090;2024-03-02T10:27:59;14.88;;;5.47;;
78224;SDS011;67498;53.650;10.090;2024-03-02T10:30:28;18.17;;;6.43;;
78224;SDS011;67498;53.650;10.090;2024-03-02T10:32:54;14.93;;;5.50;;
78224;SDS011;67498;53.650;10.090;2024-03-02T10:35:21;15.93;;;5.05;;
78224;SDS011;67498;53.650;10.090;2024-03-02T10:37:50;12.60;;;4.65;;
78224;SDS011;67498;53.650;10.090;2024-03-02T10:40:17;12.95;;;4.57;;
78224;SDS011;67498;53.650;10.090;2024-03-02T10:42:42;11.33;;;4.10;;
78224;SDS011;67498;53.650;10.090;2024-03-02T10:45:10;14.65;;;4.90;;
78224;SDS011;67498;53.650;10.090;2024-03-02T10:47:37;12.80;;;5.03;;
78224;SDS011;67498;53.650;10.090;2024-03-02T10:50:04;12.43;;;3.93;;
78224;SDS011;67498;53.650;10.090;2024-03-02T10:52:34;11.52;;;4.28;;
78224;SDS011;67498;53.650;10.090;2024-03-02T10:55:02;14.32;;;4.80;;
78224;SDS011;67498;53.650;10.090;2024-03-02T10:57:38;13.50;;;4.40;;
78224;SDS011;67498;53.650;10.090;2024-03-02T11:00:07;12.45;;;4.47;;
78224;SDS011;67498;53.650;10.090;2024-03-02T11:02:39;9.10;;;3.10;;
78224;SDS011;67498;53.650;10.090;2024-03-02T11:05:07;10.02;;;3.55;;
78224;SDS011;67498;53.650;10.090;2024-03-02T11:07:35;12.50;;;4.20;;
78224;SDS011;67498;53.650;10.090;2024-03-02T11:10:03;14.52;;;4.25;;
78224;SDS011;67498;53.650;10.090;2024-03-02T11:12:38;11.07;;;3.45;;
78224;SDS011;67498;53.650;10.090;2024-03-02T11:15:11;11.10;;;4.27;;
78224;SDS011;67498;53.650;10.090;2024-03-02T11:17:42;12.60;;;3.95;;
78224;SDS011;67498;53.650;10.090;2024-03-02T11:20:08;15.95;;;4.70;;
78224;SDS011;67498;53.650;10.090;2024-03-02T11:22:35;13.20;;;4.55;;
78224;SDS011;67498;53.650;10.090;2024-03-02T11:25:01;11.77;;;4.18;;
78224;SDS011;67498;53.650;10.090;2024-03-02T11:33:04;10.87;;;4.00;;
78224;SDS011;67498;53.650;10.090;2024-03-02T11:35:37;9.27;;;3.60;;
78224;SDS011;67498;53.650;10.090;2024-03-02T11:38:06;15.07;;;3.95;;
78224;SDS011;67498;53.650;10.090;2024-03-02T11:40:32;11.20;;;4.22;;
78224;SDS011;67498;53.650;10.090;2024-03-02T11:42:59;12.77;;;4.30;;
78224;SDS011;67498;53.650;10.090;2024-03-02T11:45:25;10.48;;;3.88;;
78224;SDS011;67498;53.650;10.090;2024-03-02T11:47:52;12.73;;;4.50;;
78224;SDS011;67498;53.650;10.090;2024-03-02T11:50:35;11.73;;;4.07;;
78224;SDS011;67498;53.650;10.090;2024-03-02T11:53:08;10.20;;;4.03;;
78224;SDS011;67498;53.650;10.090;2024-03-02T11:55:34;10.57;;;3.45;;
78224;SDS011;67498;53.650;10.090;2024-03-02T11:58:01;13.00;;;4.00;;
78224;SDS011;67498;53.650;10.090;2024-03-02T12:00:27;10.65;;;4.53;;
78224;SDS011;67498;53.650;10.090;2024-03-02T12:03:00;10.40;;;3.40;;
78224;SDS011;67498;53.650;10.090;2024-03-02T12:05:32;9.93;;;4.20;;
78224;SDS011;67498;53.650;10.090;2024-03-02T12:08:01;10.80;;;3.40;;
78224;SDS011;67498;53.650;10.090;2024-03-02T12:10:29;12.82;;;4.55;;
78224;SDS011;67498;53.650;10.090;2024-03-02T12:12:55;11.30;;;4.20;;
78224;SDS011;67498;53.650;10.090;2024-03-02T12:15:25;10.20;;;3.55;;
78224;SDS011;67498;53.650;10.090;2024-03-02T12:17:53;10.48;;;3.92;;
78224;SDS011;67498;53.650;10.090;2024-03-02T12:20:22;8.52;;;3.38;;
78224;SDS011;67498;53.650;10.090;2024-03-02T12:22:52;10.38;;;2.97;;
78224;SDS011;67498;53.650;10.090;2024-03-02T12:25:21;11.53;;;3.83;;
78224;SDS011;67498;53.650;10.090;2024-03-02T12:27:48;12.00;;;3.63;;
78224;SDS011;67498;53.650;10.090;2024-03-02T12:30:18;9.68;;;3.95;;
78224;SDS011;67498;53.650;10.090;2024-03-02T12:32:44;8.25;;;2.67;;
78224;SDS011;67498;53.650;10.090;2024-03-02T12:35:10;10.50;;;3.78;;
78224;SDS011;67498;53.650;10.090;2024-03-02T12:37:43;9.33;;;3.60;;
78224;SDS011;67498;53.650;10.090;2024-03-02T12:40:12;14.25;;;4.00;;
78224;SDS011;67498;53.650;10.090;2024-03-02T12:42:38;10.57;;;3.75;;
78224;SDS011;67498;53.650;10.090;2024-03-02T12:45:05;9.65;;;3.42;;
78224;SDS011;67498;53.650;10.090;2024-03-02T12:47:33;9.77;;;4.28;;
78224;SDS011;67498;53.650;10.090;2024-03-02T12:49:59;9.77;;;3.50;;
78224;SDS011;67498;53.650;10.090;2024-03-02T12:52:24;11.90;;;3.97;;
78224;SDS011;67498;53.650;10.090;2024-03-02T12:54:50;11.63;;;4.40;;
78224;SDS011;67498;53.650;10.090;2024-03-02T12:57:18;10.32;;;4.05;;
78224;SDS011;67498;53.650;10.090;2024-03-02T12:59:47;8.80;;;3.33;;
78224;SDS011;67498;53.650;10.090;2024-03-02T13:02:19;10.95;;;4.18;;
78224;SDS011;67498;53.650;10.090;2024-03-02T13:04:50;13.20;;;3.95;;
78224;SDS011;67498;53.650;10.090;2024-03-02T13:07:19;11.38;;;3.83;;
78224;SDS011;67498;53.650;10.090;2024-03-02T13:09:45;10.85;;;3.65;;
78224;SDS011;67498;53.650;10.090;2024-03-02T13:12:11;12.47;;;3.90;;
78224;SDS011;67498;53.650;10.090;2024-03-02T13:14:36;10.18;;;3.40;;
78224;SDS011;67498;53.650;10.090;2024-03-02T13:17:01;11.13;;;3.60;;
78224;SDS011;67498;53.650;10.090;2024-03-02T13:19:30;10.97;;;3.27;;
78224;SDS011;67498;53.650;10.090;2024-03-02T13:21:56;11.60;;;4.28;;
78224;SDS011;67498;53.650;10.090;2024-03-02T13:24:22;8.93;;;3.03;;
78224;SDS011;67498;53.650;10.090;2024-03-02T13:26:50;9.63;;;3.60;;
78224;SDS011;67498;53.650;10.090;2024-03-02T13:29:20;9.50;;;3.60;;
78224;SDS011;67498;53.650;10.090;2024-03-02T13:31:46;9.60;;;3.03;;
78224;SDS011;67498;53.650;10.090;2024-03-02T13:34:11;9.37;;;3.47;;
78224;SDS011;67498;53.650;10.090;2024-03-02T13:36:37;9.80;;;3.42;;
78224;SDS011;67498;53.650;10.090;2024-03-02T13:39:03;9.57;;;3.25;;
78224;SDS011;67498;53.650;10.090;2024-03-02T13:41:30;10.23;;;3.90;;
78224;SDS011;67498;53.650;10.090;2024-03-02T13:43:55;10.63;;;3.63;;
78224;SDS011;67498;53.650;10.090;2024-03-02T13:46:21;9.57;;;3.30;;
78224;SDS011;67498;53.650;10.090;2024-03-02T13:48:47;9.20;;;2.83;;
78224;SDS011;67498;53.650;10.090;2024-03-02T13:51:12;11.67;;;3.60;;
78224;SDS011;67498;53.650;10.090;2024-03-02T13:53:37;9.73;;;3.07;;
78224;SDS011;67498;53.650;10.090;2024-03-02T13:56:02;8.03;;;3.20;;
78224;SDS011;67498;53.650;10.090;2024-03-02T13:58:28;9.07;;;2.87;;
78224;SDS011;67498;53.650;10.090;2024-03-02T14:00:53;7.77;;;3.40;;
78224;SDS011;67498;53.650;10.090;2024-03-02T14:03:19;9.57;;;2.93;;
78224;SDS011;67498;53.650;10.090;2024-03-02T14:05:44;9.43;;;3.47;;
78224;SDS011;67498;53.650;10.090;2024-03-02T14:08:11;9.18;;;2.88;;
78224;SDS011;67498;53.650;10.090;2024-03-02T14:10:36;14.90;;;5.50;;
78224;SDS011;67498;53.650;10.090;2024-03-02T14:13:01;11.47;;;3.60;;
78224;SDS011;67498;53.650;10.090;2024-03-02T14:15:27;7.53;;;3.08;;
78224;SDS011;67498;53.650;10.090;2024-03-02T14:17:54;13.77;;;3.07;;
78224;SDS011;67498;53.650;10.090;2024-03-02T14:20:20;11.67;;;3.80;;
78224;SDS011;67498;53.650;10.090;2024-03-02T14:22:47;8.95;;;3.13;;
78224;SDS011;67498;53.650;10.090;2024-03-02T14:25:13;10.45;;;3.13;;
78224;SDS011;67498;53.650;10.090;2024-03-02T14:27:38;8.73;;;3.17;;